sensor_id;sensor_type;location;lat;lon;timestamp;pressure;altitude;pressure_sealevel;temperature;humidity
64019;BME280;66942;52.138;5.216;2023-03-18T00:01:32;100788.0;;;15.85;57.22
64019;BME280;66942;52.138;5.216;2023-03-18T00:03:08;100791.0;;;15.71;57.52
64019;BME280;66942;52.138;5.216;2023-03-18T00:04:45;100796.0;;;15.43;57.96
64019;BME280;66942;52.138;5.216;2023-03-18T00:07:57;100794.0;;;15.25;58.77
64019;BME280;66942;52.138;5.216;2023-03-18T00:09:33;100792.0;;;15.1;59.37
64019;BME280;66942;52.138;5.216;2023-03-18T00:11:11;100795.0;;;15.21;59.01
64019;BME280;66942;52.138;5.216;2023-03-18T00:14:26;100795.0;;;14.89;60.3
64019;BME280;66942;52.138;5.216;2023-03-18T00:16:03;100796.0;;;14.81;60.4
64019;BME280;66942;52.138;5.216;2023-03-18T00:17:41;100803.0;;;15.29;58.72
64019;BME280;66942;52.138;5.216;2023-03-18T00:19:17;100806.0;;;15.08;58.99
64019;BME280;66942;52.138;5.216;2023-03-18T00:22:29;100807.0;;;14.99;59.69
64019;BME280;66942;52.138;5.216;2023-03-18T00:24:08;100808.0;;;15.56;57.82
64019;BME280;66942;52.138;5.216;2023-03-18T00:25:46;100807.0;;;15.81;57.08
64019;BME280;66942;52.138;5.216;2023-03-18T00:28:59;100809.0;;;15.79;57.0
64019;BME280;66942;52.138;5.216;2023-03-18T00:30:37;100813.0;;;15.82;56.87
64019;BME280;66942;52.138;5.216;2023-03-18T00:32:14;100818.0;;;15.45;57.7
64019;BME280;66942;52.138;5.216;2023-03-18T00:33:50;100817.0;;;15.45;57.79
64019;BME280;66942;52.138;5.216;2023-03-18T00:37:03;100814.0;;;15.71;57.18
64019;BME280;66942;52.138;5.216;2023-03-18T00:38:39;100816.0;;;15.14;58.85
64019;BME280;66942;52.138;5.216;2023-03-18T00:40:17;100822.0;;;15.24;58.57
64019;BME280;66942;52.138;5.216;2023-03-18T00:43:31;100821.0;;;15.4;58.18
64019;BME280;66942;52.138;5.216;2023-03-18T00:45:09;100816.0;;;15.67;57.4
64019;BME280;66942;52.138;5.216;2023-03-18T00:46:45;100817.0;;;15.38;58.28
64019;BME280;66942;52.138;5.216;2023-03-18T00:49:59;100820.0;;;15.09;59.79
64019;BME280;66942;52.138;5.216;2023-03-18T00:51:36;100816.0;;;15.2;59.24
64019;BME280;66942;52.138;5.216;2023-03-18T00:53:12;100816.0;;;15.31;58.91
64019;BME280;66942;52.138;5.216;2023-03-18T00:54:49;100815.0;;;14.92;59.68
64019;BME280;66942;52.138;5.216;2023-03-18T00:58:04;100816.0;;;14.97;60.02
64019;BME280;66942;52.138;5.216;2023-03-18T00:59:40;100809.0;;;15.17;59.42
64019;BME280;66942;52.138;5.216;2023-03-18T01:01:16;100807.0;;;15.06;59.73
64019;BME280;66942;52.138;5.216;2023-03-18T01:04:30;100805.0;;;15.14;59.25
64019;BME280;66942;52.138;5.216;2023-03-18T01:06:09;100805.0;;;15.07;59.8
64019;BME280;66942;52.138;5.216;2023-03-18T01:07:46;100807.0;;;14.95;59.9
64019;BME280;66942;52.138;5.216;2023-03-18T01:09:22;100812.0;;;15.24;59.24
64019;BME280;66942;52.138;5.216;2023-03-18T01:12:35;100807.0;;;15.57;58.21
64019;BME280;66942;52.138;5.216;2023-03-18T01:14:11;100812.0;;;15.07;59.54
64019;BME280;66942;52.138;5.216;2023-03-18T01:15:47;100813.0;;;15.29;59.11
64019;BME280;66942;52.138;5.216;2023-03-18T01:19:00;100808.0;;;15.64;58.1
64019;BME280;66942;52.138;5.216;2023-03-18T01:20:36;100807.0;;;15.25;59.08
64019;BME280;66942;52.138;5.216;2023-03-18T01:22:13;100811.0;;;15.46;58.61
64019;BME280;66942;52.138;5.216;2023-03-18T01:25:25;100813.0;;;15.51;58.49
64019;BME280;66942;52.138;5.216;2023-03-18T01:27:01;100809.0;;;15.71;57.9
64019;BME280;66942;52.138;5.216;2023-03-18T01:28:38;100810.0;;;15.84;57.57
64019;BME280;66942;52.138;5.216;2023-03-18T01:30:15;100814.0;;;15.38;58.75
64019;BME280;66942;52.138;5.216;2023-03-18T01:33:28;100815.0;;;15.57;58.33
64019;BME280;66942;52.138;5.216;2023-03-18T01:35:04;100812.0;;;15.76;57.82
64019;BME280;66942;52.138;5.216;2023-03-18T01:36:41;100812.0;;;15.85;57.54
64019;BME280;66942;52.138;5.216;2023-03-18T01:39:54;100811.0;;;15.62;58.14
64019;BME280;66942;52.138;5.216;2023-03-18T01:41:30;100811.0;;;15.75;57.67
64019;BME280;66942;52.138;5.216;2023-03-18T01:43:12;100810.0;;;15.65;58.09
64019;BME280;66942;52.138;5.216;2023-03-18T01:45:12;100812.0;;;15.62;58.21
64019;BME280;66942;52.138;5.216;2023-03-18T01:48:30;100818.0;;;15.33;58.95
64019;BME280;66942;52.138;5.216;2023-03-18T01:50:11;100819.0;;;15.25;59.25
64019;BME280;66942;52.138;5.216;2023-03-18T01:51:52;100818.0;;;15.2;59.54
64019;BME280;66942;52.138;5.216;2023-03-18T01:53:37;100819.0;;;15.39;58.99
64019;BME280;66942;52.138;5.216;2023-03-18T01:56:58;100823.0;;;15.16;59.68
64019;BME280;66942;52.138;5.216;2023-03-18T01:58:39;100820.0;;;15.53;58.65
64019;BME280;66942;52.138;5.216;2023-03-18T02:00:20;100815.0;;;15.38;59.15
64019;BME280;66942;52.138;5.216;2023-03-18T02:02:01;100816.0;;;15.46;58.96
64019;BME280;66942;52.138;5.216;2023-03-18T02:05:19;100818.0;;;15.17;59.77
64019;BME280;66942;52.138;5.216;2023-03-18T02:06:58;100819.0;;;15.4;59.1
64019;BME280;66942;52.138;5.216;2023-03-18T02:08:36;100820.0;;;15.43;58.94
64019;BME280;66942;52.138;5.216;2023-03-18T02:10:15;100816.0;;;15.38;59.34
64019;BME280;66942;52.138;5.216;2023-03-18T02:13:32;100817.0;;;15.26;59.73
64019;BME280;66942;52.138;5.216;2023-03-18T02:15:15;100821.0;;;15.21;59.69
64019;BME280;66942;52.138;5.216;2023-03-18T02:16:57;100819.0;;;15.2;59.99
64019;BME280;66942;52.138;5.216;2023-03-18T02:18:42;100820.0;;;15.65;58.71
64019;BME280;66942;52.138;5.216;2023-03-18T02:22:21;100824.0;;;15.59;58.81
64019;BME280;66942;52.138;5.216;2023-03-18T02:24:07;100832.0;;;15.59;58.85
64019;BME280;66942;52.138;5.216;2023-03-18T02:25:58;100834.0;;;15.49;59.29
64019;BME280;66942;52.138;5.216;2023-03-18T02:27:39;100835.0;;;15.55;59.09
64019;BME280;66942;52.138;5.216;2023-03-18T02:29:18;100831.0;;;15.73;58.71
64019;BME280;66942;52.138;5.216;2023-03-18T02:30:58;100832.0;;;15.64;59.01
64019;BME280;66942;52.138;5.216;2023-03-18T02:34:15;100830.0;;;15.8;58.66
64019;BME280;66942;52.138;5.216;2023-03-18T02:35:56;100824.0;;;15.7;58.88
64019;BME280;66942;52.138;5.216;2023-03-18T02:37:38;100824.0;;;15.66;59.15
64019;BME280;66942;52.138;5.216;2023-03-18T02:40:52;100830.0;;;15.58;59.23
64019;BME280;66942;52.138;5.216;2023-03-18T02:42:29;100827.0;;;15.85;58.51
64019;BME280;66942;52.138;5.216;2023-03-18T02:44:07;100830.0;;;16.06;58.01
64019;BME280;66942;52.138;5.216;2023-03-18T02:45:51;100827.0;;;16.0;58.24
64019;BME280;66942;52.138;5.216;2023-03-18T02:49:16;100827.0;;;16.22;57.57
64019;BME280;66942;52.138;5.216;2023-03-18T02:50:54;100827.0;;;16.18;57.59
64019;BME280;66942;52.138;5.216;2023-03-18T02:52:30;100830.0;;;16.06;57.86
64019;BME280;66942;52.138;5.216;2023-03-18T02:54:08;100828.0;;;15.93;58.3
64019;BME280;66942;52.138;5.216;2023-03-18T02:57:23;100823.0;;;16.12;57.74
64019;BME280;66942;52.138;5.216;2023-03-18T02:58:59;100826.0;;;16.11;57.78
64019;BME280;66942;52.138;5.216;2023-03-18T03:00:35;100827.0;;;15.8;58.59
64019;BME280;66942;52.138;5.216;2023-03-18T03:03:48;100832.0;;;15.72;58.94
64019;BME280;66942;52.138;5.216;2023-03-18T03:05:25;100828.0;;;15.7;59.34
64019;BME280;66942;52.138;5.216;2023-03-18T03:07:01;100832.0;;;15.55;59.42
64019;BME280;66942;52.138;5.216;2023-03-18T03:08:38;100831.0;;;15.89;58.53
64019;BME280;66942;52.138;5.216;2023-03-18T03:11:51;100831.0;;;15.83;58.48
64019;BME280;66942;52.138;5.216;2023-03-18T03:13:27;100839.0;;;15.78;58.82
64019;BME280;66942;52.138;5.216;2023-03-18T03:15:04;100839.0;;;15.95;58.3
64019;BME280;66942;52.138;5.216;2023-03-18T03:18:17;100840.0;;;15.9;58.52
64019;BME280;66942;52.138;5.216;2023-03-18T03:19:53;100843.0;;;15.85;58.56
64019;BME280;66942;52.138;5.216;2023-03-18T03:21:30;100845.0;;;15.74;58.94
64019;BME280;66942;52.138;5.216;2023-03-18T03:24:47;100850.0;;;15.75;58.87
64019;BME280;66942;52.138;5.216;2023-03-18T03:26:23;100855.0;;;15.68;59.12
64019;BME280;66942;52.138;5.216;2023-03-18T03:27:59;100858.0;;;15.79;58.86
64019;BME280;66942;52.138;5.216;2023-03-18T03:29:35;100857.0;;;15.85;58.66
64019;BME280;66942;52.138;5.216;2023-03-18T03:32:48;100858.0;;;16.02;58.18
64019;BME280;66942;52.138;5.216;2023-03-18T03:34:24;100856.0;;;15.91;58.4
64019;BME280;66942;52.138;5.216;2023-03-18T03:36:01;100853.0;;;15.82;58.67
64019;BME280;66942;52.138;5.216;2023-03-18T03:39:13;100857.0;;;15.72;58.86
64019;BME280;66942;52.138;5.216;2023-03-18T03:40:49;100861.0;;;15.71;59.05
64019;BME280;66942;52.138;5.216;2023-03-18T03:42:25;100859.0;;;15.67;59.24
64019;BME280;66942;52.138;5.216;2023-03-18T03:45:38;100862.0;;;15.81;58.81
64019;BME280;66942;52.138;5.216;2023-03-18T03:47:13;100861.0;;;15.58;59.28
64019;BME280;66942;52.138;5.216;2023-03-18T03:48:50;100864.0;;;15.88;58.52
64019;BME280;66942;52.138;5.216;2023-03-18T03:50:26;100863.0;;;16.07;57.95
64019;BME280;66942;52.138;5.216;2023-03-18T03:53:39;100869.0;;;16.28;57.34
64019;BME280;66942;52.138;5.216;2023-03-18T03:55:18;100872.0;;;16.06;57.85
64019;BME280;66942;52.138;5.216;2023-03-18T03:56:55;100871.0;;;15.8;58.6
64019;BME280;66942;52.138;5.216;2023-03-18T04:00:10;100873.0;;;15.9;58.48
64019;BME280;66942;52.138;5.216;2023-03-18T04:01:49;100866.0;;;15.98;58.33
64019;BME280;66942;52.138;5.216;2023-03-18T04:03:25;100864.0;;;16.02;58.21
64019;BME280;66942;52.138;5.216;2023-03-18T04:06:38;100869.0;;;16.03;58.13
64019;BME280;66942;52.138;5.216;2023-03-18T04:08:14;100867.0;;;16.13;57.95
64019;BME280;66942;52.138;5.216;2023-03-18T04:09:51;100867.0;;;16.18;57.9
64019;BME280;66942;52.138;5.216;2023-03-18T04:11:28;100863.0;;;16.37;57.26
64019;BME280;66942;52.138;5.216;2023-03-18T04:14:40;100864.0;;;16.25;57.58
64019;BME280;66942;52.138;5.216;2023-03-18T04:16:16;100870.0;;;16.25;57.6
64019;BME280;66942;52.138;5.216;2023-03-18T04:17:52;100870.0;;;16.22;57.63
64019;BME280;66942;52.138;5.216;2023-03-18T04:21:06;100875.0;;;16.37;57.27
64019;BME280;66942;52.138;5.216;2023-03-18T04:22:42;100869.0;;;16.59;56.6
64019;BME280;66942;52.138;5.216;2023-03-18T04:24:19;100871.0;;;16.5;56.66
64019;BME280;66942;52.138;5.216;2023-03-18T04:27:32;100870.0;;;16.36;57.09
64019;BME280;66942;52.138;5.216;2023-03-18T04:29:09;100873.0;;;16.25;57.43
64019;BME280;66942;52.138;5.216;2023-03-18T04:30:46;100883.0;;;15.98;58.11
64019;BME280;66942;52.138;5.216;2023-03-18T04:32:22;100880.0;;;15.85;58.47
64019;BME280;66942;52.138;5.216;2023-03-18T04:35:35;100880.0;;;15.68;59.17
64019;BME280;66942;52.138;5.216;2023-03-18T04:37:11;100880.0;;;16.02;58.1
64019;BME280;66942;52.138;5.216;2023-03-18T04:38:48;100881.0;;;16.0;58.12
64019;BME280;66942;52.138;5.216;2023-03-18T04:42:00;100872.0;;;16.12;57.87
64019;BME280;66942;52.138;5.216;2023-03-18T04:43:36;100872.0;;;16.2;57.77
64019;BME280;66942;52.138;5.216;2023-03-18T04:45:13;100868.0;;;16.18;57.75
64019;BME280;66942;52.138;5.216;2023-03-18T04:48:28;100876.0;;;16.02;58.44
64019;BME280;66942;52.138;5.216;2023-03-18T04:50:04;100876.0;;;15.77;59.17
64019;BME280;66942;52.138;5.216;2023-03-18T04:51:41;100878.0;;;15.7;59.77
64019;BME280;66942;52.138;5.216;2023-03-18T04:53:17;100876.0;;;16.13;58.41
64019;BME280;66942;52.138;5.216;2023-03-18T04:56:29;100877.0;;;15.95;59.02
64019;BME280;66942;52.138;5.216;2023-03-18T04:58:06;100880.0;;;15.81;59.31
64019;BME280;66942;52.138;5.216;2023-03-18T04:59:41;100889.0;;;15.91;59.25
64019;BME280;66942;52.138;5.216;2023-03-18T05:02:56;100885.0;;;16.14;58.63
64019;BME280;66942;52.138;5.216;2023-03-18T05:04:32;100892.0;;;16.11;58.78
64019;BME280;66942;52.138;5.216;2023-03-18T05:06:18;100897.0;;;15.84;59.66
64019;BME280;66942;52.138;5.216;2023-03-18T05:07:55;100899.0;;;15.83;59.87
64019;BME280;66942;52.138;5.216;2023-03-18T05:11:07;100896.0;;;15.83;59.93
64019;BME280;66942;52.138;5.216;2023-03-18T05:12:43;100897.0;;;16.03;59.38
64019;BME280;66942;52.138;5.216;2023-03-18T05:14:20;100901.0;;;15.79;60.26
64019;BME280;66942;52.138;5.216;2023-03-18T05:17:33;100908.0;;;15.92;59.91
64019;BME280;66942;52.138;5.216;2023-03-18T05:19:09;100913.0;;;15.97;59.8
64019;BME280;66942;52.138;5.216;2023-03-18T05:20:45;100920.0;;;15.95;59.91
64019;BME280;66942;52.138;5.216;2023-03-18T05:23:58;100924.0;;;15.87;60.16
64019;BME280;66942;52.138;5.216;2023-03-18T05:25:34;100920.0;;;15.82;60.34
64019;BME280;66942;52.138;5.216;2023-03-18T05:27:11;100926.0;;;15.94;60.03
64019;BME280;66942;52.138;5.216;2023-03-18T05:28:49;100925.0;;;16.04;59.77
64019;BME280;66942;52.138;5.216;2023-03-18T05:32:01;100927.0;;;15.99;59.9
64019;BME280;66942;52.138;5.216;2023-03-18T05:33:37;100926.0;;;16.03;59.84
64019;BME280;66942;52.138;5.216;2023-03-18T05:35:13;100927.0;;;16.07;59.83
64019;BME280;66942;52.138;5.216;2023-03-18T05:38:25;100926.0;;;16.14;59.52
64019;BME280;66942;52.138;5.216;2023-03-18T05:40:02;100924.0;;;16.16;59.61
64019;BME280;66942;52.138;5.216;2023-03-18T05:41:38;100926.0;;;16.15;59.76
64019;BME280;66942;52.138;5.216;2023-03-18T05:44:51;100923.0;;;16.04;60.17
64019;BME280;66942;52.138;5.216;2023-03-18T05:46:27;100927.0;;;16.04;60.42
64019;BME280;66942;52.138;5.216;2023-03-18T05:48:04;100930.0;;;16.02;60.66
64019;BME280;66942;52.138;5.216;2023-03-18T05:49:41;100931.0;;;15.83;61.2
64019;BME280;66942;52.138;5.216;2023-03-18T05:52:53;100935.0;;;15.95;60.74
64019;BME280;66942;52.138;5.216;2023-03-18T05:54:30;100938.0;;;15.94;61.09
64019;BME280;66942;52.138;5.216;2023-03-18T05:56:06;100936.0;;;16.06;60.73
64019;BME280;66942;52.138;5.216;2023-03-18T05:59:20;100939.0;;;15.99;61.12
64019;BME280;66942;52.138;5.216;2023-03-18T06:00:58;100938.0;;;15.87;61.51
64019;BME280;66942;52.138;5.216;2023-03-18T06:02:34;100943.0;;;15.85;61.78
64019;BME280;66942;52.138;5.216;2023-03-18T06:05:46;100945.0;;;16.04;60.97
64019;BME280;66942;52.138;5.216;2023-03-18T06:07:22;100946.0;;;16.2;60.83
64019;BME280;66942;52.138;5.216;2023-03-18T06:08:58;100948.0;;;16.06;60.93
64019;BME280;66942;52.138;5.216;2023-03-18T06:10:34;100948.0;;;16.02;61.28
64019;BME280;66942;52.138;5.216;2023-03-18T06:13:47;100950.0;;;15.92;61.49
64019;BME280;66942;52.138;5.216;2023-03-18T06:15:23;100948.0;;;15.84;61.92
64019;BME280;66942;52.138;5.216;2023-03-18T06:16:59;100946.0;;;16.16;60.98
64019;BME280;66942;52.138;5.216;2023-03-18T06:20:12;100946.0;;;16.12;61.07
64019;BME280;66942;52.138;5.216;2023-03-18T06:21:49;100945.0;;;16.02;61.47
64019;BME280;66942;52.138;5.216;2023-03-18T06:23:27;100952.0;;;15.92;61.8
64019;BME280;66942;52.138;5.216;2023-03-18T06:26:40;100953.0;;;15.94;61.76
64019;BME280;66942;52.138;5.216;2023-03-18T06:28:17;100956.0;;;15.88;61.97
64019;BME280;66942;52.138;5.216;2023-03-18T06:29:54;100962.0;;;15.88;61.91
64019;BME280;66942;52.138;5.216;2023-03-18T06:31:30;100966.0;;;15.66;62.59
64019;BME280;66942;52.138;5.216;2023-03-18T06:34:42;100973.0;;;15.91;61.89
64019;BME280;66942;52.138;5.216;2023-03-18T06:36:19;100978.0;;;16.15;61.06
64019;BME280;66942;52.138;5.216;2023-03-18T06:37:57;100981.0;;;15.77;62.18
64019;BME280;66942;52.138;5.216;2023-03-18T06:41:09;100984.0;;;16.27;60.85
64019;BME280;66942;52.138;5.216;2023-03-18T06:42:46;100985.0;;;16.43;60.36
64019;BME280;66942;52.138;5.216;2023-03-18T06:44:22;100986.0;;;16.36;60.48
64019;BME280;66942;52.138;5.216;2023-03-18T06:47:36;100985.0;;;16.5;60.17
64019;BME280;66942;52.138;5.216;2023-03-18T06:49:13;100988.0;;;16.27;60.72
64019;BME280;66942;52.138;5.216;2023-03-18T06:50:49;100983.0;;;16.43;60.55
64019;BME280;66942;52.138;5.216;2023-03-18T06:52:26;100980.0;;;16.36;60.83
64019;BME280;66942;52.138;5.216;2023-03-18T06:55:38;100980.0;;;16.09;61.48
64019;BME280;66942;52.138;5.216;2023-03-18T06:57:14;100982.0;;;16.18;61.41
64019;BME280;66942;52.138;5.216;2023-03-18T06:58:50;100987.0;;;16.43;60.73
64019;BME280;66942;52.138;5.216;2023-03-18T07:02:03;100989.0;;;16.65;60.02
64019;BME280;66942;52.138;5.216;2023-03-18T07:03:39;100988.0;;;16.73;59.74
64019;BME280;66942;52.138;5.216;2023-03-18T07:05:16;100990.0;;;16.86;59.3
64019;BME280;66942;52.138;5.216;2023-03-18T07:08:29;100994.0;;;16.39;60.54
64019;BME280;66942;52.138;5.216;2023-03-18T07:10:08;100999.0;;;16.23;61.0
64019;BME280;66942;52.138;5.216;2023-03-18T07:11:53;101005.0;;;16.59;59.88
64019;BME280;66942;52.138;5.216;2023-03-18T07:13:29;101010.0;;;16.7;59.36
64019;BME280;66942;52.138;5.216;2023-03-18T07:16:42;101012.0;;;16.46;60.02
64019;BME280;66942;52.138;5.216;2023-03-18T07:18:18;101020.0;;;16.53;60.06
64019;BME280;66942;52.138;5.216;2023-03-18T07:19:55;101020.0;;;16.2;61.22
64019;BME280;66942;52.138;5.216;2023-03-18T07:23:07;101020.0;;;16.37;61.2
64019;BME280;66942;52.138;5.216;2023-03-18T07:24:44;101019.0;;;16.63;60.47
64019;BME280;66942;52.138;5.216;2023-03-18T07:26:20;101020.0;;;16.68;60.98
64019;BME280;66942;52.138;5.216;2023-03-18T07:29:35;101015.0;;;16.68;60.96
64019;BME280;66942;52.138;5.216;2023-03-18T07:31:10;101013.0;;;16.88;60.92
64019;BME280;66942;52.138;5.216;2023-03-18T07:32:47;101013.0;;;16.93;61.21
64019;BME280;66942;52.138;5.216;2023-03-18T07:34:23;101021.0;;;17.41;60.34
64019;BME280;66942;52.138;5.216;2023-03-18T07:37:35;101020.0;;;17.5;59.95
64019;BME280;66942;52.138;5.216;2023-03-18T07:39:13;101023.0;;;17.56;59.61
64019;BME280;66942;52.138;5.216;2023-03-18T07:40:49;101025.0;;;18.02;57.34
64019;BME280;66942;52.138;5.216;2023-03-18T07:44:02;101028.0;;;18.02;57.28
64019;BME280;66942;52.138;5.216;2023-03-18T07:45:38;101030.0;;;18.29;56.17
64019;BME280;66942;52.138;5.216;2023-03-18T07:47:15;101031.0;;;18.29;56.23
64019;BME280;66942;52.138;5.216;2023-03-18T07:50:27;101032.0;;;18.3;56.34
64019;BME280;66942;52.138;5.216;2023-03-18T07:52:03;101036.0;;;18.45;55.73
64019;BME280;66942;52.138;5.216;2023-03-18T07:53:39;101040.0;;;18.41;55.87
64019;BME280;66942;52.138;5.216;2023-03-18T07:55:15;101035.0;;;18.62;54.84
64019;BME280;66942;52.138;5.216;2023-03-18T07:58:27;101031.0;;;18.31;56.44
64019;BME280;66942;52.138;5.216;2023-03-18T08:00:04;101037.0;;;18.45;55.81
64019;BME280;66942;52.138;5.216;2023-03-18T08:01:42;101041.0;;;18.61;55.44
64019;BME280;66942;52.138;5.216;2023-03-18T08:04:54;101039.0;;;18.64;54.69
64019;BME280;66942;52.138;5.216;2023-03-18T08:06:30;101038.0;;;18.71;55.04
64019;BME280;66942;52.138;5.216;2023-03-18T08:08:06;101038.0;;;18.64;55.07
64019;BME280;66942;52.138;5.216;2023-03-18T08:11:19;101036.0;;;18.77;54.94
64019;BME280;66942;52.138;5.216;2023-03-18T08:12:55;101037.0;;;18.8;54.72
64019;BME280;66942;52.138;5.216;2023-03-18T08:14:32;101039.0;;;18.93;54.76
64019;BME280;66942;52.138;5.216;2023-03-18T08:16:08;101037.0;;;18.91;53.88
64019;BME280;66942;52.138;5.216;2023-03-18T08:19:20;101036.0;;;19.02;54.19
64019;BME280;66942;52.138;5.216;2023-03-18T08:20:56;101034.0;;;19.04;53.9
64019;BME280;66942;52.138;5.216;2023-03-18T08:22:32;101036.0;;;19.11;54.18
64019;BME280;66942;52.138;5.216;2023-03-18T08:25:46;101030.0;;;19.27;53.91
64019;BME280;66942;52.138;5.216;2023-03-18T08:27:24;101028.0;;;19.16;53.51
64019;BME280;66942;52.138;5.216;2023-03-18T08:29:00;101026.0;;;19.06;53.59
64019;BME280;66942;52.138;5.216;2023-03-18T08:32:14;101025.0;;;19.31;53.04
64019;BME280;66942;52.138;5.216;2023-03-18T08:33:51;101019.0;;;19.07;53.11
64019;BME280;66942;52.138;5.216;2023-03-18T08:35:27;101023.0;;;19.59;52.72
64019;BME280;66942;52.138;5.216;2023-03-18T08:37:04;101024.0;;;19.84;52.66
64019;BME280;66942;52.138;5.216;2023-03-18T08:40:17;101021.0;;;19.88;50.93
64019;BME280;66942;52.138;5.216;2023-03-18T08:41:54;101017.0;;;20.02;51.15
64019;BME280;66942;52.138;5.216;2023-03-18T08:43:30;101016.0;;;20.23;50.84
64019;BME280;66942;52.138;5.216;2023-03-18T08:46:43;101016.0;;;20.06;50.67
64019;BME280;66942;52.138;5.216;2023-03-18T08:48:20;101013.0;;;20.05;50.4
64019;BME280;66942;52.138;5.216;2023-03-18T08:49:57;101018.0;;;20.07;50.85
64019;BME280;66942;52.138;5.216;2023-03-18T08:53:09;101023.0;;;20.09;50.17
64019;BME280;66942;52.138;5.216;2023-03-18T08:54:46;101023.0;;;19.98;51.23
64019;BME280;66942;52.138;5.216;2023-03-18T08:56:22;101026.0;;;20.2;50.84
64019;BME280;66942;52.138;5.216;2023-03-18T08:57:58;101027.0;;;20.39;50.48
64019;BME280;66942;52.138;5.216;2023-03-18T09:01:10;101030.0;;;20.53;49.66
64019;BME280;66942;52.138;5.216;2023-03-18T09:02:47;101030.0;;;20.67;49.66
64019;BME280;66942;52.138;5.216;2023-03-18T09:04:23;101035.0;;;20.72;48.86
64019;BME280;66942;52.138;5.216;2023-03-18T09:07:37;101036.0;;;20.8;48.79
64019;BME280;66942;52.138;5.216;2023-03-18T09:09:13;101040.0;;;21.18;48.56
64019;BME280;66942;52.138;5.216;2023-03-18T09:10:50;101036.0;;;21.32;47.57
64019;BME280;66942;52.138;5.216;2023-03-18T09:14:03;101037.0;;;21.62;48.45
64019;BME280;66942;52.138;5.216;2023-03-18T09:15:39;101038.0;;;21.67;47.49
64019;BME280;66942;52.138;5.216;2023-03-18T09:17:16;101038.0;;;22.09;49.55
64019;BME280;66942;52.138;5.216;2023-03-18T09:18:52;101037.0;;;21.63;47.29
64019;BME280;66942;52.138;5.216;2023-03-18T09:22:05;101041.0;;;22.0;45.96
64019;BME280;66942;52.138;5.216;2023-03-18T09:23:42;101038.0;;;22.28;45.1
64019;BME280;66942;52.138;5.216;2023-03-18T09:25:18;101047.0;;;22.44;46.3
64019;BME280;66942;52.138;5.216;2023-03-18T09:28:32;101046.0;;;22.49;45.56
64019;BME280;66942;52.138;5.216;2023-03-18T09:30:09;101049.0;;;22.64;44.16
64019;BME280;66942;52.138;5.216;2023-03-18T09:31:46;101049.0;;;22.7;43.67
64019;BME280;66942;52.138;5.216;2023-03-18T09:34:59;101047.0;;;22.46;44.38
64019;BME280;66942;52.138;5.216;2023-03-18T09:36:35;101044.0;;;22.43;45.61
64019;BME280;66942;52.138;5.216;2023-03-18T09:38:13;101051.0;;;22.68;44.64
64019;BME280;66942;52.138;5.216;2023-03-18T09:39:50;101048.0;;;22.72;43.65
64019;BME280;66942;52.138;5.216;2023-03-18T09:43:28;101051.0;;;22.69;44.61
64019;BME280;66942;52.138;5.216;2023-03-18T09:45:18;101056.0;;;22.71;44.18
64019;BME280;66942;52.138;5.216;2023-03-18T09:47:10;101063.0;;;22.89;44.11
64019;BME280;66942;52.138;5.216;2023-03-18T09:49:04;101065.0;;;22.62;44.39
64019;BME280;66942;52.138;5.216;2023-03-18T09:50:57;101065.0;;;22.78;45.43
64019;BME280;66942;52.138;5.216;2023-03-18T09:52:44;101066.0;;;22.75;45.23
64019;BME280;66942;52.138;5.216;2023-03-18T09:56:12;101066.0;;;22.52;44.58
64019;BME280;66942;52.138;5.216;2023-03-18T09:57:54;101061.0;;;22.26;45.67
64019;BME280;66942;52.138;5.216;2023-03-18T09:59:37;101067.0;;;21.88;44.99
64019;BME280;66942;52.138;5.216;2023-03-18T10:01:18;101065.0;;;21.71;45.96
64019;BME280;66942;52.138;5.216;2023-03-18T10:02:58;101062.0;;;22.02;45.55
64019;BME280;66942;52.138;5.216;2023-03-18T10:06:20;101066.0;;;21.87;46.12
64019;BME280;66942;52.138;5.216;2023-03-18T10:08:01;101063.0;;;21.93;46.26
64019;BME280;66942;52.138;5.216;2023-03-18T10:09:45;101061.0;;;22.09;45.26
64019;BME280;66942;52.138;5.216;2023-03-18T10:11:25;101060.0;;;21.7;45.06
64019;BME280;66942;52.138;5.216;2023-03-18T10:15:00;101062.0;;;21.74;45.73
64019;BME280;66942;52.138;5.216;2023-03-18T10:16:50;101064.0;;;22.39;46.81
64019;BME280;66942;52.138;5.216;2023-03-18T10:18:38;101067.0;;;22.79;43.94
64019;BME280;66942;52.138;5.216;2023-03-18T10:20:19;101064.0;;;22.21;44.25
64019;BME280;66942;52.138;5.216;2023-03-18T10:22:16;101059.0;;;22.38;46.86
64019;BME280;66942;52.138;5.216;2023-03-18T10:24:04;101055.0;;;22.56;44.99
64019;BME280;66942;52.138;5.216;2023-03-18T10:27:37;101056.0;;;22.8;46.0
64019;BME280;66942;52.138;5.216;2023-03-18T10:29:30;101049.0;;;22.49;44.06
64019;BME280;66942;52.138;5.216;2023-03-18T10:31:17;101050.0;;;22.63;43.57
64019;BME280;66942;52.138;5.216;2023-03-18T10:33:06;101047.0;;;22.69;43.2
64019;BME280;66942;52.138;5.216;2023-03-18T10:34:59;101045.0;;;22.8;42.41
64019;BME280;66942;52.138;5.216;2023-03-18T10:36:54;101048.0;;;22.53;43.66
64019;BME280;66942;52.138;5.216;2023-03-18T10:38:37;101052.0;;;23.21;42.74
64019;BME280;66942;52.138;5.216;2023-03-18T10:41:57;101051.0;;;23.06;41.5
64019;BME280;66942;52.138;5.216;2023-03-18T10:43:35;101053.0;;;23.44;42.24
64019;BME280;66942;52.138;5.216;2023-03-18T10:45:20;101055.0;;;23.51;42.19
64019;BME280;66942;52.138;5.216;2023-03-18T10:46:58;101049.0;;;23.29;40.98
64019;BME280;66942;52.138;5.216;2023-03-18T10:50:20;101053.0;;;23.52;40.07
64019;BME280;66942;52.138;5.216;2023-03-18T10:52:02;101055.0;;;23.23;42.31
64019;BME280;66942;52.138;5.216;2023-03-18T10:53:45;101055.0;;;23.17;41.33
64019;BME280;66942;52.138;5.216;2023-03-18T10:55:29;101053.0;;;23.03;42.04
64019;BME280;66942;52.138;5.216;2023-03-18T10:58:49;101060.0;;;23.01;42.22
64019;BME280;66942;52.138;5.216;2023-03-18T11:00:28;101061.0;;;22.87;42.68
64019;BME280;66942;52.138;5.216;2023-03-18T11:02:16;101069.0;;;22.5;43.08
64019;BME280;66942;52.138;5.216;2023-03-18T11:03:57;101066.0;;;22.41;42.98
64019;BME280;66942;52.138;5.216;2023-03-18T11:05:36;101061.0;;;22.19;44.45